EZY7806 EHRD-EGPH
Flight info
| Callsign | EZY7806 |
|---|---|
| Flight time | 1h 16m |
| Altitude | 38000 |
| Route | TULIP DCT OTR DCT NEW DCT TLA |
| Aircraft | A320/M-SDE3FGHIRWY/LB1 |
Departure
| Time | 2026-05-04 19:21 |
|---|---|
| Airport | Rotterdam The Hague Airport (EHRD) |
Arrival
| Time | 2026-05-04 20:37 |
|---|---|
| Airport | Edinburgh Airport (EGPH) |
| Time | Latitude | Longitude | Altitude | Speed | Heading |
|---|---|---|---|---|---|
| 2026-05-04 18:53 | 51.95090 | 4.43428 | 1 ft | 0 kts | 327° |
| 2026-05-04 19:15 | 51.95104 | 4.43413 | 1 ft | 1 kts | 327° |
| 2026-05-04 19:16 | 51.95110 | 4.43407 | 2 ft | 2 kts | 327° |
| 2026-05-04 19:16 | 51.95131 | 4.43412 | 1 ft | 4 kts | 32° |
| 2026-05-04 19:16 | 51.95152 | 4.43459 | 1 ft | 6 kts | 57° |
| 2026-05-04 19:16 | 51.95175 | 4.43516 | 1 ft | 7 kts | 53° |
| 2026-05-04 19:17 | 51.95225 | 4.43529 | 1 ft | 9 kts | 337° |
| 2026-05-04 19:17 | 51.95291 | 4.43526 | 1 ft | 12 kts | 40° |
| 2026-05-04 19:17 | 51.95342 | 4.43649 | 1 ft | 15 kts | 58° |
| 2026-05-04 19:17 | 51.95403 | 4.43803 | 1 ft | 18 kts | 57° |
| 2026-05-04 19:18 | 51.95476 | 4.43983 | 1 ft | 20 kts | 57° |
| 2026-05-04 19:18 | 51.95558 | 4.44188 | 1 ft | 23 kts | 57° |
| 2026-05-04 19:18 | 51.95648 | 4.44412 | 1 ft | 25 kts | 57° |
| 2026-05-04 19:18 | 51.95745 | 4.44652 | 1 ft | 26 kts | 57° |
| 2026-05-04 19:19 | 51.95847 | 4.44909 | 1 ft | 28 kts | 58° |
| 2026-05-04 19:19 | 51.95953 | 4.45178 | 1 ft | 29 kts | 57° |
| 2026-05-04 19:19 | 51.96052 | 4.45422 | 1 ft | 25 kts | 56° |
| 2026-05-04 19:19 | 51.96123 | 4.45601 | 1 ft | 18 kts | 55° |
| 2026-05-04 19:20 | 51.96210 | 4.45615 | 1 ft | 15 kts | 319° |
| 2026-05-04 19:20 | 51.96254 | 4.45454 | 0 ft | 17 kts | 258° |
| 2026-05-04 19:20 | 51.96226 | 4.45371 | 1 ft | 0 kts | 238° |
| 2026-05-04 19:20 | 51.96221 | 4.45358 | 1 ft | 16 kts | 238° |
| 2026-05-04 19:21 | 51.96000 | 4.44794 | -1 ft | 98 kts | 237° |
| 2026-05-04 19:21 | 51.95510 | 4.43570 | 2 ft | 158 kts | 237° |
| 2026-05-04 19:21 | 51.94897 | 4.42052 | 617 ft | 158 kts | 239° |
| 2026-05-04 19:21 | 51.94365 | 4.40467 | 1333 ft | 157 kts | 257° |
| 2026-05-04 19:22 | 51.94265 | 4.38727 | 1883 ft | 164 kts | 284° |
| 2026-05-04 19:22 | 51.94661 | 4.36936 | 2349 ft | 176 kts | 298° |
| 2026-05-04 19:22 | 51.95182 | 4.35065 | 2858 ft | 193 kts | 298° |
| 2026-05-04 19:22 | 51.95679 | 4.32926 | 3408 ft | 213 kts | 284° |
| 2026-05-04 19:23 | 51.95763 | 4.30392 | 3899 ft | 238 kts | 265° |
| 2026-05-04 19:23 | 51.95578 | 4.27604 | 4460 ft | 260 kts | 265° |
| 2026-05-04 19:23 | 51.95367 | 4.24629 | 5287 ft | 269 kts | 264° |
| 2026-05-04 19:23 | 51.95138 | 4.21596 | 6276 ft | 273 kts | 263° |
| 2026-05-04 19:24 | 51.94892 | 4.18531 | 7202 ft | 276 kts | 263° |
| 2026-05-04 19:24 | 51.94632 | 4.15413 | 8122 ft | 280 kts | 262° |
| 2026-05-04 19:24 | 51.94364 | 4.12270 | 9051 ft | 284 kts | 262° |
| 2026-05-04 19:24 | 51.94084 | 4.09039 | 9977 ft | 288 kts | 262° |
| 2026-05-04 19:25 | 51.93784 | 4.05743 | 10463 ft | 307 kts | 261° |
| 2026-05-04 19:25 | 51.93447 | 4.02210 | 10899 ft | 325 kts | 261° |
| 2026-05-04 19:25 | 51.93089 | 3.98562 | 11638 ft | 331 kts | 261° |
| 2026-05-04 19:25 | 51.92724 | 3.94852 | 12434 ft | 335 kts | 261° |
| 2026-05-04 19:26 | 51.92362 | 3.91144 | 13221 ft | 340 kts | 261° |
| 2026-05-04 19:26 | 51.91983 | 3.87296 | 13995 ft | 344 kts | 262° |
| 2026-05-04 19:26 | 51.91606 | 3.83460 | 14698 ft | 347 kts | 262° |
| 2026-05-04 19:26 | 51.91225 | 3.79583 | 15405 ft | 350 kts | 262° |
| 2026-05-04 19:27 | 51.90845 | 3.75703 | 16087 ft | 353 kts | 261° |
| 2026-05-04 19:27 | 51.90455 | 3.71743 | 16773 ft | 356 kts | 261° |
| 2026-05-04 19:27 | 51.90060 | 3.67760 | 17474 ft | 360 kts | 261° |
| 2026-05-04 19:27 | 51.89659 | 3.63745 | 18170 ft | 363 kts | 261° |
| 2026-05-04 19:28 | 51.89256 | 3.59705 | 18807 ft | 365 kts | 261° |
| 2026-05-04 19:28 | 51.88848 | 3.55637 | 19425 ft | 367 kts | 261° |
| 2026-05-04 19:28 | 51.88436 | 3.51555 | 20060 ft | 368 kts | 261° |
| 2026-05-04 19:28 | 51.88021 | 3.47457 | 20700 ft | 369 kts | 261° |
| 2026-05-04 19:29 | 51.87607 | 3.43352 | 21327 ft | 371 kts | 261° |
| 2026-05-04 19:29 | 51.87189 | 3.39233 | 21978 ft | 371 kts | 260° |
| 2026-05-04 19:29 | 51.86765 | 3.35085 | 22545 ft | 374 kts | 260° |
| 2026-05-04 19:29 | 51.86336 | 3.30912 | 23070 ft | 377 kts | 260° |
| 2026-05-04 19:30 | 51.85903 | 3.26716 | 23638 ft | 379 kts | 260° |
| 2026-05-04 19:30 | 51.85466 | 3.22505 | 24091 ft | 381 kts | 260° |
| 2026-05-04 19:30 | 51.85022 | 3.18265 | 24528 ft | 384 kts | 259° |
| 2026-05-04 19:30 | 51.84621 | 3.13989 | 24939 ft | 388 kts | 262° |
| 2026-05-04 19:31 | 51.84307 | 3.09642 | 25349 ft | 391 kts | 263° |
| 2026-05-04 19:31 | 51.84043 | 3.05235 | 25771 ft | 394 kts | 263° |
| 2026-05-04 19:31 | 51.83798 | 3.00815 | 26191 ft | 396 kts | 263° |
| 2026-05-04 19:31 | 51.83548 | 2.96366 | 26584 ft | 399 kts | 263° |
| 2026-05-04 19:32 | 51.83280 | 2.91890 | 26962 ft | 402 kts | 262° |
| 2026-05-04 19:32 | 51.82991 | 2.87371 | 27395 ft | 404 kts | 262° |
| 2026-05-04 19:32 | 51.82691 | 2.82833 | 27809 ft | 406 kts | 262° |
| 2026-05-04 19:32 | 51.82384 | 2.78283 | 28204 ft | 409 kts | 261° |
| 2026-05-04 19:33 | 51.82069 | 2.73704 | 28592 ft | 411 kts | 261° |
| 2026-05-04 19:33 | 51.81747 | 2.69073 | 28987 ft | 414 kts | 261° |
| 2026-05-04 19:33 | 51.81430 | 2.64466 | 29362 ft | 416 kts | 261° |
| 2026-05-04 19:33 | 51.81111 | 2.59799 | 29748 ft | 419 kts | 261° |
| 2026-05-04 19:34 | 51.80788 | 2.55114 | 30110 ft | 421 kts | 261° |
| 2026-05-04 19:34 | 51.80460 | 2.50402 | 30423 ft | 423 kts | 261° |
| 2026-05-04 19:34 | 51.80128 | 2.45672 | 30737 ft | 425 kts | 261° |
| 2026-05-04 19:34 | 51.79794 | 2.40915 | 31056 ft | 426 kts | 261° |
| 2026-05-04 19:35 | 51.79457 | 2.36151 | 31391 ft | 427 kts | 262° |
| 2026-05-04 19:35 | 51.79117 | 2.31379 | 31707 ft | 428 kts | 261° |
| 2026-05-04 19:35 | 51.78771 | 2.26608 | 32116 ft | 427 kts | 261° |
| 2026-05-04 19:35 | 51.78425 | 2.21855 | 32487 ft | 427 kts | 261° |
| 2026-05-04 19:36 | 51.78104 | 2.17080 | 32858 ft | 427 kts | 262° |
| 2026-05-04 19:36 | 51.77822 | 2.12316 | 33251 ft | 426 kts | 263° |
| 2026-05-04 19:36 | 51.77557 | 2.07551 | 33653 ft | 426 kts | 263° |
| 2026-05-04 19:36 | 51.77297 | 2.02793 | 34049 ft | 425 kts | 263° |
| 2026-05-04 19:37 | 51.77032 | 1.98048 | 34380 ft | 424 kts | 262° |
| 2026-05-04 19:37 | 51.76758 | 1.93311 | 34697 ft | 424 kts | 263° |
| 2026-05-04 19:37 | 51.76474 | 1.88566 | 34981 ft | 424 kts | 262° |
| 2026-05-04 19:37 | 51.76181 | 1.83831 | 35257 ft | 424 kts | 262° |
| 2026-05-04 19:38 | 51.75880 | 1.79093 | 35521 ft | 425 kts | 262° |
| 2026-05-04 19:38 | 51.75580 | 1.74352 | 35776 ft | 425 kts | 262° |
| 2026-05-04 19:38 | 51.75281 | 1.69603 | 36043 ft | 425 kts | 262° |
| 2026-05-04 19:38 | 51.74982 | 1.64862 | 36298 ft | 425 kts | 262° |
| 2026-05-04 19:39 | 51.74683 | 1.60102 | 36541 ft | 426 kts | 262° |
| 2026-05-04 19:39 | 51.74385 | 1.55351 | 36781 ft | 426 kts | 262° |
| 2026-05-04 19:39 | 51.74083 | 1.50594 | 37016 ft | 426 kts | 262° |
| 2026-05-04 19:39 | 51.73779 | 1.45837 | 37256 ft | 426 kts | 262° |
| 2026-05-04 19:40 | 51.73472 | 1.41077 | 37482 ft | 427 kts | 262° |
| 2026-05-04 19:40 | 51.73164 | 1.36315 | 37694 ft | 427 kts | 262° |
| 2026-05-04 19:40 | 51.72855 | 1.31549 | 37914 ft | 428 kts | 262° |
| 2026-05-04 19:40 | 51.72542 | 1.26771 | 38030 ft | 428 kts | 262° |
| 2026-05-04 19:41 | 51.72226 | 1.22006 | 38044 ft | 427 kts | 262° |
| 2026-05-04 19:41 | 51.71584 | 1.12489 | 38043 ft | 427 kts | 262° |
| 2026-05-04 19:42 | 51.70938 | 1.02988 | 38044 ft | 426 kts | 262° |
| 2026-05-04 19:42 | 51.70284 | 0.93478 | 38034 ft | 427 kts | 262° |
| 2026-05-04 19:43 | 51.69615 | 0.83947 | 38035 ft | 428 kts | 262° |
| 2026-05-04 19:43 | 51.68942 | 0.74416 | 38034 ft | 429 kts | 262° |
| 2026-05-04 19:44 | 51.68271 | 0.64865 | 38035 ft | 429 kts | 262° |
| 2026-05-04 19:44 | 51.67588 | 0.55318 | 38037 ft | 429 kts | 262° |
| 2026-05-04 19:45 | 51.66888 | 0.45793 | 38037 ft | 429 kts | 262° |
| 2026-05-04 19:45 | 51.66301 | 0.37777 | 38035 ft | 429 kts | 262° |
| 2026-05-04 19:46 | 51.65587 | 0.28226 | 38031 ft | 430 kts | 262° |
| 2026-05-04 19:46 | 51.65311 | 0.18629 | 38032 ft | 432 kts | 276° |
| 2026-05-04 19:47 | 51.67052 | 0.09370 | 38032 ft | 436 kts | 296° |
| 2026-05-04 19:47 | 51.70284 | 0.01077 | 38031 ft | 438 kts | 301° |
| 2026-05-04 19:48 | 51.73663 | -0.07097 | 38050 ft | 439 kts | 307° |
| 2026-05-04 19:48 | 51.78147 | -0.13680 | 38047 ft | 443 kts | 327° |
| 2026-05-04 19:49 | 51.83517 | -0.18769 | 38049 ft | 444 kts | 328° |
| 2026-05-04 19:49 | 51.88626 | -0.23636 | 38051 ft | 444 kts | 328° |
| 2026-05-04 19:50 | 51.93947 | -0.28739 | 38054 ft | 445 kts | 328° |
| 2026-05-04 19:50 | 51.99267 | -0.33862 | 38056 ft | 445 kts | 328° |
| 2026-05-04 19:51 | 52.04623 | -0.39024 | 38058 ft | 445 kts | 328° |
| 2026-05-04 19:51 | 52.09933 | -0.44149 | 38061 ft | 445 kts | 328° |
| 2026-05-04 19:52 | 52.15270 | -0.49299 | 38060 ft | 445 kts | 328° |
| 2026-05-04 19:52 | 52.20593 | -0.54462 | 38064 ft | 445 kts | 328° |
| 2026-05-04 19:53 | 52.25905 | -0.59640 | 38064 ft | 445 kts | 328° |
| 2026-05-04 19:53 | 52.31220 | -0.64821 | 38070 ft | 444 kts | 328° |
| 2026-05-04 19:54 | 52.36513 | -0.70004 | 38078 ft | 443 kts | 328° |
| 2026-05-04 19:54 | 52.41800 | -0.75182 | 38078 ft | 442 kts | 328° |
| 2026-05-04 19:55 | 52.47069 | -0.80370 | 38075 ft | 442 kts | 328° |
| 2026-05-04 19:55 | 52.52326 | -0.85565 | 38075 ft | 441 kts | 328° |
| 2026-05-04 19:56 | 52.57589 | -0.90779 | 38078 ft | 441 kts | 328° |
| 2026-05-04 19:56 | 52.62836 | -0.95986 | 38067 ft | 440 kts | 328° |
| 2026-05-04 19:57 | 52.68072 | -1.01204 | 38061 ft | 440 kts | 328° |
| 2026-05-04 19:57 | 52.73310 | -1.06428 | 38058 ft | 440 kts | 328° |
| 2026-05-04 19:58 | 52.78546 | -1.11659 | 38073 ft | 440 kts | 328° |
| 2026-05-04 19:58 | 52.83763 | -1.16900 | 38075 ft | 439 kts | 328° |
| 2026-05-04 19:59 | 52.88988 | -1.22170 | 38072 ft | 439 kts | 328° |
| 2026-05-04 19:59 | 52.94203 | -1.27437 | 38072 ft | 439 kts | 328° |
| 2026-05-04 20:00 | 52.99425 | -1.32711 | 38068 ft | 439 kts | 328° |
| 2026-05-04 20:00 | 53.04635 | -1.37986 | 38069 ft | 439 kts | 328° |
| 2026-05-04 20:01 | 53.09839 | -1.43294 | 38073 ft | 439 kts | 328° |
| 2026-05-04 20:01 | 53.15041 | -1.48619 | 38072 ft | 439 kts | 328° |
| 2026-05-04 20:02 | 53.20239 | -1.53943 | 38068 ft | 439 kts | 328° |
| 2026-05-04 20:02 | 53.25437 | -1.59285 | 38063 ft | 439 kts | 328° |
| 2026-05-04 20:03 | 53.30635 | -1.64636 | 38073 ft | 438 kts | 328° |
| 2026-05-04 20:03 | 53.35822 | -1.69995 | 38074 ft | 438 kts | 327° |
| 2026-05-04 20:04 | 53.41000 | -1.75353 | 38069 ft | 438 kts | 328° |
| 2026-05-04 20:04 | 53.46174 | -1.80730 | 38067 ft | 437 kts | 328° |
| 2026-05-04 20:05 | 53.51344 | -1.86125 | 38077 ft | 437 kts | 327° |
| 2026-05-04 20:05 | 53.56514 | -1.91521 | 38074 ft | 437 kts | 327° |
| 2026-05-04 20:06 | 53.61676 | -1.96932 | 38067 ft | 437 kts | 327° |
| 2026-05-04 20:06 | 53.66834 | -2.02357 | 38069 ft | 437 kts | 327° |
| 2026-05-04 20:07 | 53.71989 | -2.07804 | 38075 ft | 437 kts | 328° |
| 2026-05-04 20:07 | 53.77406 | -2.12395 | 38082 ft | 436 kts | 338° |
| 2026-05-04 20:08 | 53.83026 | -2.16197 | 38080 ft | 435 kts | 338° |
| 2026-05-04 20:08 | 53.88630 | -2.20030 | 38078 ft | 434 kts | 338° |
| 2026-05-04 20:09 | 53.94215 | -2.23872 | 38077 ft | 433 kts | 338° |
| 2026-05-04 20:09 | 53.99804 | -2.27724 | 38075 ft | 433 kts | 337° |
| 2026-05-04 20:10 | 54.05386 | -2.31567 | 38073 ft | 433 kts | 338° |
| 2026-05-04 20:10 | 54.10975 | -2.35434 | 38072 ft | 433 kts | 337° |
| 2026-05-04 20:11 | 54.16550 | -2.39319 | 38066 ft | 433 kts | 337° |
| 2026-05-04 20:11 | 54.22133 | -2.43199 | 38067 ft | 433 kts | 337° |
| 2026-05-04 20:11 | 54.24938 | -2.45149 | 37715 ft | 438 kts | 337° |
| 2026-05-04 20:12 | 54.27757 | -2.47109 | 37401 ft | 436 kts | 337° |
| 2026-05-04 20:12 | 54.30553 | -2.49056 | 36917 ft | 431 kts | 338° |
| 2026-05-04 20:12 | 54.33314 | -2.50985 | 36422 ft | 427 kts | 337° |
| 2026-05-04 20:12 | 54.36052 | -2.52905 | 35929 ft | 423 kts | 337° |
| 2026-05-04 20:13 | 54.38765 | -2.54805 | 35427 ft | 420 kts | 337° |
| 2026-05-04 20:13 | 54.41454 | -2.56692 | 34928 ft | 416 kts | 337° |
| 2026-05-04 20:13 | 54.44128 | -2.58578 | 34422 ft | 414 kts | 337° |
| 2026-05-04 20:13 | 54.46784 | -2.60456 | 33893 ft | 411 kts | 337° |
| 2026-05-04 20:14 | 54.49421 | -2.62325 | 33343 ft | 408 kts | 336° |
| 2026-05-04 20:14 | 54.52033 | -2.64178 | 32835 ft | 404 kts | 336° |
| 2026-05-04 20:14 | 54.54625 | -2.66016 | 32311 ft | 401 kts | 336° |
| 2026-05-04 20:14 | 54.57193 | -2.67837 | 31802 ft | 398 kts | 336° |
| 2026-05-04 20:15 | 54.59747 | -2.69647 | 31305 ft | 395 kts | 336° |
| 2026-05-04 20:15 | 54.62275 | -2.71439 | 30817 ft | 392 kts | 336° |
| 2026-05-04 20:15 | 54.64786 | -2.73225 | 30350 ft | 389 kts | 336° |
| 2026-05-04 20:15 | 54.67278 | -2.75005 | 29827 ft | 385 kts | 336° |
| 2026-05-04 20:16 | 54.69740 | -2.76761 | 29383 ft | 380 kts | 336° |
| 2026-05-04 20:16 | 54.72167 | -2.78493 | 28939 ft | 375 kts | 336° |
| 2026-05-04 20:16 | 54.74568 | -2.80209 | 28498 ft | 371 kts | 335° |
| 2026-05-04 20:16 | 54.76935 | -2.81901 | 28083 ft | 366 kts | 335° |
| 2026-05-04 20:17 | 54.79272 | -2.83573 | 27648 ft | 362 kts | 335° |
| 2026-05-04 20:17 | 54.81579 | -2.85230 | 27230 ft | 358 kts | 335° |
| 2026-05-04 20:17 | 54.83867 | -2.86876 | 26784 ft | 355 kts | 335° |
| 2026-05-04 20:17 | 54.86144 | -2.88516 | 26341 ft | 352 kts | 335° |
| 2026-05-04 20:18 | 54.88399 | -2.90141 | 25900 ft | 350 kts | 335° |
| 2026-05-04 20:18 | 54.90659 | -2.91777 | 25388 ft | 354 kts | 335° |
| 2026-05-04 20:18 | 54.92930 | -2.93424 | 24900 ft | 353 kts | 335° |
| 2026-05-04 20:18 | 54.95199 | -2.95069 | 24394 ft | 353 kts | 335° |
| 2026-05-04 20:19 | 54.97459 | -2.96706 | 23923 ft | 352 kts | 334° |
| 2026-05-04 20:19 | 54.99719 | -2.98343 | 23379 ft | 352 kts | 334° |
| 2026-05-04 20:19 | 55.01978 | -2.99981 | 22872 ft | 350 kts | 334° |
| 2026-05-04 20:19 | 55.04219 | -3.01610 | 22384 ft | 348 kts | 334° |
| 2026-05-04 20:20 | 55.06452 | -3.03234 | 21900 ft | 347 kts | 334° |
| 2026-05-04 20:20 | 55.08673 | -3.04850 | 21410 ft | 345 kts | 334° |
| 2026-05-04 20:20 | 55.10887 | -3.06468 | 20938 ft | 344 kts | 334° |
| 2026-05-04 20:20 | 55.13093 | -3.08088 | 20442 ft | 343 kts | 334° |
| 2026-05-04 20:21 | 55.15295 | -3.09700 | 19969 ft | 343 kts | 335° |
| 2026-05-04 20:21 | 55.17497 | -3.11310 | 19377 ft | 342 kts | 335° |
| 2026-05-04 20:21 | 55.21764 | -3.14436 | 18275 ft | 324 kts | 335° |
| 2026-05-04 20:22 | 55.23161 | -3.15459 | 17887 ft | 319 kts | 334° |
| 2026-05-04 20:22 | 55.25192 | -3.16949 | 17332 ft | 314 kts | 334° |
| 2026-05-04 20:22 | 55.27847 | -3.18899 | 16655 ft | 311 kts | 335° |
| 2026-05-04 20:22 | 55.29931 | -3.19935 | 16137 ft | 315 kts | 348° |
| 2026-05-04 20:23 | 55.31420 | -3.20135 | 15805 ft | 320 kts | 358° |
| 2026-05-04 20:23 | 55.33634 | -3.19823 | 15427 ft | 319 kts | 2° |
| 2026-05-04 20:23 | 55.35837 | -3.19469 | 14825 ft | 315 kts | 2° |
| 2026-05-04 20:23 | 55.38005 | -3.19134 | 14228 ft | 311 kts | 1° |
| 2026-05-04 20:24 | 55.40144 | -3.18809 | 13686 ft | 307 kts | 1° |
| 2026-05-04 20:24 | 55.42257 | -3.18489 | 13153 ft | 304 kts | 1° |
| 2026-05-04 20:24 | 55.44353 | -3.18170 | 12652 ft | 301 kts | 1° |
| 2026-05-04 20:24 | 55.46431 | -3.17851 | 12153 ft | 298 kts | 1° |
| 2026-05-04 20:25 | 55.48484 | -3.17532 | 11678 ft | 296 kts | 1° |
| 2026-05-04 20:25 | 55.50525 | -3.17211 | 11180 ft | 292 kts | 1° |
| 2026-05-04 20:25 | 55.52541 | -3.16892 | 10699 ft | 290 kts | 1° |
| 2026-05-04 20:25 | 55.54545 | -3.16574 | 10214 ft | 288 kts | 1° |
| 2026-05-04 20:26 | 55.56530 | -3.16259 | 9720 ft | 285 kts | 1° |
| 2026-05-04 20:26 | 55.58498 | -3.15948 | 9238 ft | 283 kts | 1° |
| 2026-05-04 20:26 | 55.60449 | -3.15638 | 8776 ft | 281 kts | 2° |
| 2026-05-04 20:26 | 55.62381 | -3.15329 | 8285 ft | 277 kts | 2° |
| 2026-05-04 20:27 | 55.64291 | -3.15022 | 7816 ft | 275 kts | 2° |
| 2026-05-04 20:27 | 55.66191 | -3.14721 | 7355 ft | 273 kts | 2° |
| 2026-05-04 20:27 | 55.68048 | -3.14429 | 7018 ft | 260 kts | 2° |
| 2026-05-04 20:27 | 55.69789 | -3.14150 | 6935 ft | 243 kts | 2° |
| 2026-05-04 20:28 | 55.71501 | -3.13878 | 7011 ft | 249 kts | 2° |
| 2026-05-04 20:28 | 55.73231 | -3.13546 | 6833 ft | 249 kts | 4° |
| 2026-05-04 20:28 | 55.74939 | -3.13132 | 6617 ft | 247 kts | 5° |
| 2026-05-04 20:28 | 55.76627 | -3.12694 | 6400 ft | 244 kts | 5° |
| 2026-05-04 20:29 | 55.78299 | -3.12257 | 6183 ft | 243 kts | 5° |
| 2026-05-04 20:29 | 55.79966 | -3.11825 | 5973 ft | 242 kts | 6° |
| 2026-05-04 20:29 | 55.81629 | -3.11399 | 5765 ft | 241 kts | 5° |
| 2026-05-04 20:29 | 55.83283 | -3.10976 | 5562 ft | 239 kts | 6° |
| 2026-05-04 20:30 | 55.84947 | -3.10550 | 5358 ft | 238 kts | 6° |
| 2026-05-04 20:30 | 55.86587 | -3.10133 | 5153 ft | 238 kts | 5° |
| 2026-05-04 20:30 | 55.88221 | -3.09718 | 4953 ft | 237 kts | 5° |
| 2026-05-04 20:30 | 55.89822 | -3.09312 | 4751 ft | 236 kts | 5° |
| 2026-05-04 20:31 | 55.91449 | -3.08900 | 4549 ft | 236 kts | 6° |
| 2026-05-04 20:31 | 55.93070 | -3.08491 | 4366 ft | 235 kts | 6° |
| 2026-05-04 20:31 | 55.94668 | -3.08087 | 4197 ft | 227 kts | 5° |
| 2026-05-04 20:31 | 55.96196 | -3.07699 | 4060 ft | 217 kts | 6° |
| 2026-05-04 20:32 | 55.97680 | -3.07320 | 3947 ft | 215 kts | 5° |
| 2026-05-04 20:32 | 55.99159 | -3.06947 | 3837 ft | 214 kts | 6° |
| 2026-05-04 20:32 | 56.00630 | -3.06576 | 3735 ft | 213 kts | 5° |
| 2026-05-04 20:32 | 56.02097 | -3.06487 | 3643 ft | 207 kts | 344° |
| 2026-05-04 20:33 | 56.03264 | -3.07764 | 3537 ft | 195 kts | 308° |
| 2026-05-04 20:33 | 56.03763 | -3.09942 | 3352 ft | 193 kts | 274° |
| 2026-05-04 20:33 | 56.03406 | -3.12228 | 3135 ft | 195 kts | 240° |
| 2026-05-04 20:33 | 56.02710 | -3.14280 | 2930 ft | 192 kts | 243° |
| 2026-05-04 20:34 | 56.02033 | -3.16350 | 2679 ft | 193 kts | 242° |
| 2026-05-04 20:34 | 56.01349 | -3.18404 | 2447 ft | 189 kts | 243° |
| 2026-05-04 20:34 | 56.00685 | -3.20382 | 2179 ft | 182 kts | 243° |
| 2026-05-04 20:34 | 56.00042 | -3.22294 | 1929 ft | 176 kts | 244° |
| 2026-05-04 20:35 | 55.99434 | -3.24098 | 1704 ft | 162 kts | 243° |
| 2026-05-04 20:35 | 55.98879 | -3.25742 | 1486 ft | 146 kts | 243° |
| 2026-05-04 20:35 | 55.98384 | -3.27213 | 1285 ft | 133 kts | 244° |
| 2026-05-04 20:35 | 55.97913 | -3.28610 | 1098 ft | 127 kts | 242° |
| 2026-05-04 20:36 | 55.97459 | -3.29960 | 920 ft | 127 kts | 242° |
| 2026-05-04 20:36 | 55.97006 | -3.31303 | 740 ft | 126 kts | 241° |
| 2026-05-04 20:36 | 55.96547 | -3.32664 | 572 ft | 130 kts | 240° |
| 2026-05-04 20:36 | 55.96081 | -3.34042 | 377 ft | 130 kts | 240° |
| 2026-05-04 20:37 | 55.95614 | -3.35420 | 205 ft | 130 kts | 240° |
| 2026-05-04 20:37 | 55.95174 | -3.36737 | 110 ft | 109 kts | 240° |
| 2026-05-04 20:37 | 55.94867 | -3.37643 | 113 ft | 63 kts | 239° |
| 2026-05-04 20:37 | 55.94735 | -3.38027 | 114 ft | 16 kts | 230° |
| 2026-05-04 20:38 | 55.94635 | -3.37998 | 113 ft | 12 kts | 148° |
| 2026-05-04 20:38 | 55.94617 | -3.37978 | 113 ft | 0 kts | 148° |
| 2026-05-04 20:39 | 55.94598 | -3.37951 | 112 ft | 6 kts | 131° |
| 2026-05-04 20:39 | 55.94596 | -3.37883 | 112 ft | 5 kts | 76° |
| 2026-05-04 20:40 | 55.94610 | -3.37829 | 112 ft | 4 kts | 62° |
| 2026-05-04 20:40 | 55.94626 | -3.37782 | 113 ft | 7 kts | 58° |
| 2026-05-04 20:40 | 55.94661 | -3.37680 | 113 ft | 11 kts | 58° |
| 2026-05-04 20:40 | 55.94704 | -3.37553 | 111 ft | 13 kts | 59° |
| 2026-05-04 20:41 | 55.94749 | -3.37417 | 109 ft | 13 kts | 59° |
| 2026-05-04 20:41 | 55.94800 | -3.37265 | 105 ft | 15 kts | 59° |
| 2026-05-04 20:41 | 55.94853 | -3.37110 | 105 ft | 14 kts | 58° |
| 2026-05-04 20:41 | 55.94910 | -3.36942 | 104 ft | 20 kts | 58° |
| 2026-05-04 20:42 | 55.94988 | -3.36712 | 107 ft | 21 kts | 59° |
| 2026-05-04 20:42 | 55.95064 | -3.36485 | 108 ft | 21 kts | 59° |
| 2026-05-04 20:42 | 55.95132 | -3.36272 | 103 ft | 18 kts | 80° |
| 2026-05-04 20:42 | 55.95106 | -3.36067 | 105 ft | 16 kts | 108° |
| 2026-05-04 20:43 | 55.95074 | -3.35927 | 105 ft | 8 kts | 119° |
| 2026-05-04 20:43 | 55.95044 | -3.35843 | 106 ft | 8 kts | 135° |
| 2026-05-04 20:43 | 55.94999 | -3.35845 | 107 ft | 5 kts | 202° |
| 2026-05-04 20:43 | 55.94974 | -3.35860 | 107 ft | 2 kts | 194° |
| 2026-05-04 20:44 | 55.94941 | -3.35847 | 107 ft | 5 kts | 148° |
| 2026-05-04 20:44 | 55.94917 | -3.35803 | 108 ft | 5 kts | 126° |
| 2026-05-04 20:44 | 55.94903 | -3.35755 | 107 ft | 4 kts | 118° |
| 2026-05-04 20:44 | 55.94889 | -3.35711 | 106 ft | 4 kts | 118° |
| 2026-05-04 20:45 | 55.94868 | -3.35695 | 107 ft | 4 kts | 181° |
| 2026-05-04 20:45 | 55.94840 | -3.35720 | 106 ft | 5 kts | 208° |
| 2026-05-04 20:45 | 55.94820 | -3.35741 | 107 ft | 2 kts | 211° |
| 2026-05-04 20:45 | 55.94817 | -3.35743 | 107 ft | 0 kts | 211° |
| 2026-05-04 20:46 | 55.94813 | -3.35747 | 108 ft | 0 kts | 208° |